sensor_id;sensor_type;location;lat;lon;timestamp;P1;durP1;ratioP1;P2;durP2;ratioP2
14619;SDS011;32125;48.518;9.050;2023-03-22T00:00:08;4.83;;;4.10;;
14619;SDS011;32125;48.518;9.050;2023-03-22T00:02:43;7.20;;;4.40;;
14619;SDS011;32125;48.518;9.050;2023-03-22T00:05:12;5.20;;;4.30;;
14619;SDS011;32125;48.518;9.050;2023-03-22T00:07:38;5.50;;;4.40;;
14619;SDS011;32125;48.518;9.050;2023-03-22T00:10:05;9.07;;;4.87;;
14619;SDS011;32125;48.518;9.050;2023-03-22T00:12:31;7.93;;;4.90;;
14619;SDS011;32125;48.518;9.050;2023-03-22T00:14:57;6.30;;;4.70;;
14619;SDS011;32125;48.518;9.050;2023-03-22T00:17:25;6.33;;;4.80;;
14619;SDS011;32125;48.518;9.050;2023-03-22T00:19:52;6.63;;;4.40;;
14619;SDS011;32125;48.518;9.050;2023-03-22T00:22:23;7.53;;;4.70;;
14619;SDS011;32125;48.518;9.050;2023-03-22T00:24:50;7.07;;;4.70;;
14619;SDS011;32125;48.518;9.050;2023-03-22T00:27:16;8.07;;;4.70;;
14619;SDS011;32125;48.518;9.050;2023-03-22T00:29:42;7.00;;;5.10;;
14619;SDS011;32125;48.518;9.050;2023-03-22T00:32:07;6.20;;;4.97;;
14619;SDS011;32125;48.518;9.050;2023-03-22T00:34:33;6.13;;;5.17;;
14619;SDS011;32125;48.518;9.050;2023-03-22T00:36:59;8.63;;;4.97;;
14619;SDS011;32125;48.518;9.050;2023-03-22T00:39:28;5.20;;;4.70;;
14619;SDS011;32125;48.518;9.050;2023-03-22T00:41:54;5.97;;;4.57;;
14619;SDS011;32125;48.518;9.050;2023-03-22T00:44:20;7.33;;;5.60;;
14619;SDS011;32125;48.518;9.050;2023-03-22T00:46:46;5.93;;;4.90;;
14619;SDS011;32125;48.518;9.050;2023-03-22T00:49:12;6.10;;;4.60;;
14619;SDS011;32125;48.518;9.050;2023-03-22T00:51:38;6.80;;;4.80;;
14619;SDS011;32125;48.518;9.050;2023-03-22T00:54:04;5.90;;;5.10;;
14619;SDS011;32125;48.518;9.050;2023-03-22T00:56:30;6.27;;;5.10;;
14619;SDS011;32125;48.518;9.050;2023-03-22T00:58:58;5.83;;;4.40;;
14619;SDS011;32125;48.518;9.050;2023-03-22T01:01:24;6.43;;;4.77;;
14619;SDS011;32125;48.518;9.050;2023-03-22T01:03:50;5.83;;;4.63;;
14619;SDS011;32125;48.518;9.050;2023-03-22T01:06:18;5.87;;;4.57;;
14619;SDS011;32125;48.518;9.050;2023-03-22T01:08:44;5.70;;;4.77;;
14619;SDS011;32125;48.518;9.050;2023-03-22T01:11:11;7.10;;;4.50;;
14619;SDS011;32125;48.518;9.050;2023-03-22T01:13:39;5.63;;;4.80;;
14619;SDS011;32125;48.518;9.050;2023-03-22T01:16:05;6.17;;;4.80;;
14619;SDS011;32125;48.518;9.050;2023-03-22T01:18:32;5.47;;;4.80;;
14619;SDS011;32125;48.518;9.050;2023-03-22T01:21:00;5.63;;;5.03;;
14619;SDS011;32125;48.518;9.050;2023-03-22T01:23:26;5.90;;;5.00;;
14619;SDS011;32125;48.518;9.050;2023-03-22T01:25:54;8.00;;;4.53;;
14619;SDS011;32125;48.518;9.050;2023-03-22T01:28:20;8.10;;;4.83;;
14619;SDS011;32125;48.518;9.050;2023-03-22T01:30:46;5.20;;;4.70;;
14619;SDS011;32125;48.518;9.050;2023-03-22T01:33:12;5.10;;;4.70;;
14619;SDS011;32125;48.518;9.050;2023-03-22T01:35:38;5.00;;;4.57;;
14619;SDS011;32125;48.518;9.050;2023-03-22T01:38:04;5.17;;;4.50;;
14619;SDS011;32125;48.518;9.050;2023-03-22T01:40:31;5.03;;;4.53;;
14619;SDS011;32125;48.518;9.050;2023-03-22T01:42:57;6.00;;;4.40;;
14619;SDS011;32125;48.518;9.050;2023-03-22T01:47:51;5.80;;;4.87;;
14619;SDS011;32125;48.518;9.050;2023-03-22T01:50:19;5.47;;;4.87;;
14619;SDS011;32125;48.518;9.050;2023-03-22T01:52:48;5.33;;;4.83;;
14619;SDS011;32125;48.518;9.050;2023-03-22T01:55:17;5.87;;;5.00;;
14619;SDS011;32125;48.518;9.050;2023-03-22T01:57:46;5.97;;;4.60;;
14619;SDS011;32125;48.518;9.050;2023-03-22T02:00:15;5.47;;;4.67;;
14619;SDS011;32125;48.518;9.050;2023-03-22T02:02:45;7.10;;;4.50;;
14619;SDS011;32125;48.518;9.050;2023-03-22T02:05:18;5.93;;;4.50;;
14619;SDS011;32125;48.518;9.050;2023-03-22T02:07:48;5.47;;;4.20;;
14619;SDS011;32125;48.518;9.050;2023-03-22T02:10:23;7.47;;;4.50;;
14619;SDS011;32125;48.518;9.050;2023-03-22T02:13:04;4.90;;;4.33;;
14619;SDS011;32125;48.518;9.050;2023-03-22T02:15:48;4.80;;;4.33;;
14619;SDS011;32125;48.518;9.050;2023-03-22T02:21:11;5.10;;;4.60;;
14619;SDS011;32125;48.518;9.050;2023-03-22T02:26:53;5.00;;;4.10;;
14619;SDS011;32125;48.518;9.050;2023-03-22T02:42:41;5.03;;;4.53;;
14619;SDS011;32125;48.518;9.050;2023-03-22T02:52:47;4.57;;;4.17;;
14619;SDS011;32125;48.518;9.050;2023-03-22T02:55:28;5.07;;;4.10;;
14619;SDS011;32125;48.518;9.050;2023-03-22T03:00:46;4.63;;;4.20;;
14619;SDS011;32125;48.518;9.050;2023-03-22T03:03:15;6.10;;;5.00;;
14619;SDS011;32125;48.518;9.050;2023-03-22T03:05:49;5.83;;;4.80;;
14619;SDS011;32125;48.518;9.050;2023-03-22T03:08:17;7.53;;;4.67;;
14619;SDS011;32125;48.518;9.050;2023-03-22T03:10:44;5.13;;;4.63;;
14619;SDS011;32125;48.518;9.050;2023-03-22T03:13:15;6.20;;;4.60;;
14619;SDS011;32125;48.518;9.050;2023-03-22T03:15:45;5.67;;;4.50;;
14619;SDS011;32125;48.518;9.050;2023-03-22T03:28:43;5.87;;;4.37;;
14619;SDS011;32125;48.518;9.050;2023-03-22T03:34:07;7.97;;;4.90;;
14619;SDS011;32125;48.518;9.050;2023-03-22T03:36:59;7.23;;;4.80;;
14619;SDS011;32125;48.518;9.050;2023-03-22T03:39:27;4.87;;;4.40;;
14619;SDS011;32125;48.518;9.050;2023-03-22T03:41:55;5.60;;;5.00;;
14619;SDS011;32125;48.518;9.050;2023-03-22T03:44:21;6.47;;;4.50;;
14619;SDS011;32125;48.518;9.050;2023-03-22T03:46:50;5.47;;;4.57;;
14619;SDS011;32125;48.518;9.050;2023-03-22T03:49:17;4.30;;;3.90;;
14619;SDS011;32125;48.518;9.050;2023-03-22T03:51:49;4.50;;;4.10;;
14619;SDS011;32125;48.518;9.050;2023-03-22T03:54:18;5.57;;;4.20;;
14619;SDS011;32125;48.518;9.050;2023-03-22T03:56:44;6.70;;;4.93;;
14619;SDS011;32125;48.518;9.050;2023-03-22T03:59:15;5.37;;;4.87;;
14619;SDS011;32125;48.518;9.050;2023-03-22T04:01:42;6.03;;;5.10;;
14619;SDS011;32125;48.518;9.050;2023-03-22T04:04:14;5.47;;;4.90;;
14619;SDS011;32125;48.518;9.050;2023-03-22T04:06:41;8.23;;;5.53;;
14619;SDS011;32125;48.518;9.050;2023-03-22T04:09:10;7.67;;;5.97;;
14619;SDS011;32125;48.518;9.050;2023-03-22T04:11:36;6.47;;;5.80;;
14619;SDS011;32125;48.518;9.050;2023-03-22T04:14:01;7.37;;;6.00;;
14619;SDS011;32125;48.518;9.050;2023-03-22T04:16:28;7.87;;;6.07;;
14619;SDS011;32125;48.518;9.050;2023-03-22T04:18:53;6.97;;;6.20;;
14619;SDS011;32125;48.518;9.050;2023-03-22T04:21:19;8.60;;;6.00;;
14619;SDS011;32125;48.518;9.050;2023-03-22T04:23:48;6.90;;;6.20;;
14619;SDS011;32125;48.518;9.050;2023-03-22T04:26:14;6.33;;;5.50;;
14619;SDS011;32125;48.518;9.050;2023-03-22T04:28:40;6.60;;;5.20;;
14619;SDS011;32125;48.518;9.050;2023-03-22T04:31:06;7.50;;;6.20;;
14619;SDS011;32125;48.518;9.050;2023-03-22T04:33:32;6.63;;;5.27;;
14619;SDS011;32125;48.518;9.050;2023-03-22T04:36:04;6.13;;;5.53;;
14619;SDS011;32125;48.518;9.050;2023-03-22T04:38:31;5.47;;;4.97;;
14619;SDS011;32125;48.518;9.050;2023-03-22T04:40:57;6.97;;;5.20;;
14619;SDS011;32125;48.518;9.050;2023-03-22T04:43:23;7.50;;;6.00;;
14619;SDS011;32125;48.518;9.050;2023-03-22T04:45:49;6.27;;;5.40;;
14619;SDS011;32125;48.518;9.050;2023-03-22T04:48:15;6.63;;;5.00;;
14619;SDS011;32125;48.518;9.050;2023-03-22T04:50:41;5.30;;;4.80;;
14619;SDS011;32125;48.518;9.050;2023-03-22T04:53:07;6.17;;;4.80;;
14619;SDS011;32125;48.518;9.050;2023-03-22T04:55:33;5.80;;;4.40;;
14619;SDS011;32125;48.518;9.050;2023-03-22T04:58:02;5.23;;;4.70;;
14619;SDS011;32125;48.518;9.050;2023-03-22T05:00:30;6.07;;;4.87;;
14619;SDS011;32125;48.518;9.050;2023-03-22T05:02:56;6.10;;;4.83;;
14619;SDS011;32125;48.518;9.050;2023-03-22T05:05:22;5.50;;;4.87;;
14619;SDS011;32125;48.518;9.050;2023-03-22T05:07:48;5.97;;;5.23;;
14619;SDS011;32125;48.518;9.050;2023-03-22T05:10:17;6.90;;;5.10;;
14619;SDS011;32125;48.518;9.050;2023-03-22T05:12:43;5.50;;;5.00;;
14619;SDS011;32125;48.518;9.050;2023-03-22T05:15:10;5.30;;;4.80;;
14619;SDS011;32125;48.518;9.050;2023-03-22T05:17:36;6.47;;;5.80;;
14619;SDS011;32125;48.518;9.050;2023-03-22T05:20:02;6.27;;;5.00;;
14619;SDS011;32125;48.518;9.050;2023-03-22T05:22:33;6.80;;;5.33;;
14619;SDS011;32125;48.518;9.050;2023-03-22T05:25:04;6.47;;;5.67;;
14619;SDS011;32125;48.518;9.050;2023-03-22T05:27:30;6.63;;;4.80;;
14619;SDS011;32125;48.518;9.050;2023-03-22T05:29:59;6.57;;;5.33;;
14619;SDS011;32125;48.518;9.050;2023-03-22T05:32:28;6.80;;;5.83;;
14619;SDS011;32125;48.518;9.050;2023-03-22T05:34:54;6.90;;;5.50;;
14619;SDS011;32125;48.518;9.050;2023-03-22T05:37:20;7.43;;;5.60;;
14619;SDS011;32125;48.518;9.050;2023-03-22T05:39:46;6.70;;;5.37;;
14619;SDS011;32125;48.518;9.050;2023-03-22T05:42:12;5.90;;;4.90;;
14619;SDS011;32125;48.518;9.050;2023-03-22T05:44:38;6.57;;;5.00;;
14619;SDS011;32125;48.518;9.050;2023-03-22T05:47:04;6.93;;;5.00;;
14619;SDS011;32125;48.518;9.050;2023-03-22T05:49:33;6.93;;;5.80;;
14619;SDS011;32125;48.518;9.050;2023-03-22T05:51:59;5.60;;;5.10;;
14619;SDS011;32125;48.518;9.050;2023-03-22T05:54:28;6.20;;;4.90;;
14619;SDS011;32125;48.518;9.050;2023-03-22T05:56:54;6.17;;;5.30;;
14619;SDS011;32125;48.518;9.050;2023-03-22T05:59:20;6.53;;;5.20;;
14619;SDS011;32125;48.518;9.050;2023-03-22T06:01:46;7.13;;;5.20;;
14619;SDS011;32125;48.518;9.050;2023-03-22T06:04:12;6.97;;;5.17;;
14619;SDS011;32125;48.518;9.050;2023-03-22T06:06:40;6.73;;;5.43;;
14619;SDS011;32125;48.518;9.050;2023-03-22T06:09:06;7.00;;;5.17;;
14619;SDS011;32125;48.518;9.050;2023-03-22T06:11:32;9.13;;;4.80;;
14619;SDS011;32125;48.518;9.050;2023-03-22T06:13:59;9.37;;;5.20;;
14619;SDS011;32125;48.518;9.050;2023-03-22T06:16:25;7.40;;;4.63;;
14619;SDS011;32125;48.518;9.050;2023-03-22T06:18:52;4.40;;;4.00;;
14619;SDS011;32125;48.518;9.050;2023-03-22T06:21:18;5.93;;;4.30;;
14619;SDS011;32125;48.518;9.050;2023-03-22T06:23:43;5.90;;;4.43;;
14619;SDS011;32125;48.518;9.050;2023-03-22T06:26:10;8.77;;;4.80;;
14619;SDS011;32125;48.518;9.050;2023-03-22T06:28:36;5.47;;;4.03;;
14619;SDS011;32125;48.518;9.050;2023-03-22T06:31:06;5.37;;;4.00;;
14619;SDS011;32125;48.518;9.050;2023-03-22T06:33:33;4.97;;;4.10;;
14619;SDS011;32125;48.518;9.050;2023-03-22T06:35:59;5.03;;;3.80;;
14619;SDS011;32125;48.518;9.050;2023-03-22T06:38:27;5.23;;;4.30;;
14619;SDS011;32125;48.518;9.050;2023-03-22T06:40:53;5.17;;;3.60;;
14619;SDS011;32125;48.518;9.050;2023-03-22T06:43:19;7.00;;;5.10;;
14619;SDS011;32125;48.518;9.050;2023-03-22T06:45:45;4.00;;;3.63;;
14619;SDS011;32125;48.518;9.050;2023-03-22T06:48:11;4.77;;;3.57;;
14619;SDS011;32125;48.518;9.050;2023-03-22T06:50:37;4.30;;;3.40;;
14619;SDS011;32125;48.518;9.050;2023-03-22T06:53:05;4.80;;;3.40;;
14619;SDS011;32125;48.518;9.050;2023-03-22T06:55:32;4.93;;;3.90;;
14619;SDS011;32125;48.518;9.050;2023-03-22T06:58:01;5.27;;;3.60;;
14619;SDS011;32125;48.518;9.050;2023-03-22T07:00:28;5.53;;;3.70;;
14619;SDS011;32125;48.518;9.050;2023-03-22T07:02:55;5.23;;;3.60;;
14619;SDS011;32125;48.518;9.050;2023-03-22T07:05:23;6.30;;;3.60;;
14619;SDS011;32125;48.518;9.050;2023-03-22T07:07:51;6.70;;;3.50;;
14619;SDS011;32125;48.518;9.050;2023-03-22T07:10:17;3.73;;;3.30;;
14619;SDS011;32125;48.518;9.050;2023-03-22T07:12:46;4.90;;;3.23;;
14619;SDS011;32125;48.518;9.050;2023-03-22T07:15:12;4.70;;;3.40;;
14619;SDS011;32125;48.518;9.050;2023-03-22T07:17:38;5.60;;;3.60;;
14619;SDS011;32125;48.518;9.050;2023-03-22T07:20:04;4.40;;;3.43;;
14619;SDS011;32125;48.518;9.050;2023-03-22T07:22:30;6.60;;;3.80;;
14619;SDS011;32125;48.518;9.050;2023-03-22T07:25:00;5.53;;;3.90;;
14619;SDS011;32125;48.518;9.050;2023-03-22T07:27:26;3.70;;;3.40;;
14619;SDS011;32125;48.518;9.050;2023-03-22T07:29:52;4.27;;;3.20;;
14619;SDS011;32125;48.518;9.050;2023-03-22T07:32:18;5.23;;;3.70;;
14619;SDS011;32125;48.518;9.050;2023-03-22T07:34:44;3.83;;;3.43;;
14619;SDS011;32125;48.518;9.050;2023-03-22T07:37:10;3.63;;;3.30;;
14619;SDS011;32125;48.518;9.050;2023-03-22T07:39:37;5.77;;;3.23;;
14619;SDS011;32125;48.518;9.050;2023-03-22T07:42:03;6.20;;;3.05;;
14619;SDS011;32125;48.518;9.050;2023-03-22T07:44:31;3.60;;;3.30;;
14619;SDS011;32125;48.518;9.050;2023-03-22T07:46:59;2.95;;;2.70;;
14619;SDS011;32125;48.518;9.050;2023-03-22T07:49:25;3.60;;;3.05;;
14619;SDS011;32125;48.518;9.050;2023-03-22T07:51:52;3.42;;;3.10;;
14619;SDS011;32125;48.518;9.050;2023-03-22T07:54:18;5.28;;;2.97;;
14619;SDS011;32125;48.518;9.050;2023-03-22T07:56:44;4.15;;;3.50;;
14619;SDS011;32125;48.518;9.050;2023-03-22T07:59:12;6.80;;;3.30;;
14619;SDS011;32125;48.518;9.050;2023-03-22T08:01:40;4.70;;;3.00;;
14619;SDS011;32125;48.518;9.050;2023-03-22T08:04:07;3.17;;;2.70;;
14619;SDS011;32125;48.518;9.050;2023-03-22T08:06:33;5.28;;;2.70;;
14619;SDS011;32125;48.518;9.050;2023-03-22T08:09:01;4.30;;;2.72;;
14619;SDS011;32125;48.518;9.050;2023-03-22T08:11:27;3.50;;;2.58;;
14619;SDS011;32125;48.518;9.050;2023-03-22T08:13:53;3.10;;;2.75;;
14619;SDS011;32125;48.518;9.050;2023-03-22T08:16:19;3.08;;;2.88;;
14619;SDS011;32125;48.518;9.050;2023-03-22T08:18:45;5.07;;;2.55;;
14619;SDS011;32125;48.518;9.050;2023-03-22T08:21:11;4.45;;;2.85;;
14619;SDS011;32125;48.518;9.050;2023-03-22T08:23:37;6.03;;;2.72;;
14619;SDS011;32125;48.518;9.050;2023-03-22T08:26:03;5.95;;;3.00;;
14619;SDS011;32125;48.518;9.050;2023-03-22T08:28:30;4.93;;;3.10;;
14619;SDS011;32125;48.518;9.050;2023-03-22T08:30:56;3.22;;;2.70;;
14619;SDS011;32125;48.518;9.050;2023-03-22T08:33:23;3.85;;;2.95;;
14619;SDS011;32125;48.518;9.050;2023-03-22T08:35:51;4.00;;;2.63;;
14619;SDS011;32125;48.518;9.050;2023-03-22T08:38:17;3.72;;;2.63;;
14619;SDS011;32125;48.518;9.050;2023-03-22T08:40:46;4.43;;;2.60;;
14619;SDS011;32125;48.518;9.050;2023-03-22T08:43:14;3.28;;;2.15;;
14619;SDS011;32125;48.518;9.050;2023-03-22T08:45:40;2.75;;;2.15;;
14619;SDS011;32125;48.518;9.050;2023-03-22T08:48:06;2.92;;;2.20;;
14619;SDS011;32125;48.518;9.050;2023-03-22T08:50:33;5.25;;;2.00;;
14619;SDS011;32125;48.518;9.050;2023-03-22T08:53:01;3.28;;;1.92;;
14619;SDS011;32125;48.518;9.050;2023-03-22T08:55:30;2.10;;;1.92;;
14619;SDS011;32125;48.518;9.050;2023-03-22T08:58:01;1.75;;;1.55;;
14619;SDS011;32125;48.518;9.050;2023-03-22T09:00:28;2.00;;;1.80;;
14619;SDS011;32125;48.518;9.050;2023-03-22T09:02:55;2.53;;;1.50;;
14619;SDS011;32125;48.518;9.050;2023-03-22T09:05:21;2.55;;;1.40;;
14619;SDS011;32125;48.518;9.050;2023-03-22T09:07:50;1.10;;;1.10;;
14619;SDS011;32125;48.518;9.050;2023-03-22T09:10:16;2.33;;;1.20;;
14619;SDS011;32125;48.518;9.050;2023-03-22T09:12:42;1.60;;;1.50;;
14619;SDS011;32125;48.518;9.050;2023-03-22T09:15:09;1.60;;;1.50;;
14619;SDS011;32125;48.518;9.050;2023-03-22T09:17:35;1.35;;;1.25;;
14619;SDS011;32125;48.518;9.050;2023-03-22T09:20:01;2.35;;;1.13;;
14619;SDS011;32125;48.518;9.050;2023-03-22T09:22:29;3.17;;;1.40;;
14619;SDS011;32125;48.518;9.050;2023-03-22T09:24:56;1.98;;;1.27;;
14619;SDS011;32125;48.518;9.050;2023-03-22T09:27:22;2.15;;;1.75;;
14619;SDS011;32125;48.518;9.050;2023-03-22T09:29:50;1.10;;;1.00;;
14619;SDS011;32125;48.518;9.050;2023-03-22T09:32:16;3.05;;;1.38;;
14619;SDS011;32125;48.518;9.050;2023-03-22T09:34:42;1.23;;;0.93;;
14619;SDS011;32125;48.518;9.050;2023-03-22T09:37:08;1.13;;;0.98;;
14619;SDS011;32125;48.518;9.050;2023-03-22T09:39:36;1.88;;;0.98;;
14619;SDS011;32125;48.518;9.050;2023-03-22T09:42:06;1.75;;;0.90;;
14619;SDS011;32125;48.518;9.050;2023-03-22T09:44:37;1.10;;;0.60;;
14619;SDS011;32125;48.518;9.050;2023-03-22T09:47:06;1.15;;;0.80;;
14619;SDS011;32125;48.518;9.050;2023-03-22T09:49:38;0.70;;;0.70;;
14619;SDS011;32125;48.518;9.050;2023-03-22T09:52:08;1.00;;;1.00;;
14619;SDS011;32125;48.518;9.050;2023-03-22T09:54:36;0.68;;;0.68;;
14619;SDS011;32125;48.518;9.050;2023-03-22T09:57:06;2.60;;;0.88;;
14619;SDS011;32125;48.518;9.050;2023-03-22T09:59:48;0.73;;;0.70;;
14619;SDS011;32125;48.518;9.050;2023-03-22T10:12:38;1.90;;;0.80;;
14619;SDS011;32125;48.518;9.050;2023-03-22T10:15:16;0.73;;;0.60;;
14619;SDS011;32125;48.518;9.050;2023-03-22T10:17:45;0.80;;;0.80;;
14619;SDS011;32125;48.518;9.050;2023-03-22T10:20:41;0.82;;;0.80;;
14619;SDS011;32125;48.518;9.050;2023-03-22T10:23:22;0.60;;;0.60;;
14619;SDS011;32125;48.518;9.050;2023-03-22T10:25:51;1.80;;;0.80;;
14619;SDS011;32125;48.518;9.050;2023-03-22T10:28:41;3.05;;;0.80;;
14619;SDS011;32125;48.518;9.050;2023-03-22T10:31:09;1.35;;;0.90;;
14619;SDS011;32125;48.518;9.050;2023-03-22T10:36:07;1.27;;;0.80;;
14619;SDS011;32125;48.518;9.050;2023-03-22T10:38:36;1.05;;;0.65;;
14619;SDS011;32125;48.518;9.050;2023-03-22T10:41:05;2.53;;;0.75;;
14619;SDS011;32125;48.518;9.050;2023-03-22T10:43:35;1.65;;;0.63;;
14619;SDS011;32125;48.518;9.050;2023-03-22T10:46:03;1.55;;;0.80;;
14619;SDS011;32125;48.518;9.050;2023-03-22T10:48:32;1.77;;;0.60;;
14619;SDS011;32125;48.518;9.050;2023-03-22T10:50:59;0.60;;;0.60;;
14619;SDS011;32125;48.518;9.050;2023-03-22T10:53:35;0.57;;;0.50;;
14619;SDS011;32125;48.518;9.050;2023-03-22T10:56:02;1.23;;;0.70;;
14619;SDS011;32125;48.518;9.050;2023-03-22T10:58:30;0.75;;;0.70;;
14619;SDS011;32125;48.518;9.050;2023-03-22T11:00:57;1.20;;;0.65;;
14619;SDS011;32125;48.518;9.050;2023-03-22T11:08:49;1.27;;;1.17;;
14619;SDS011;32125;48.518;9.050;2023-03-22T11:11:21;1.67;;;1.20;;
14619;SDS011;32125;48.518;9.050;2023-03-22T11:13:49;2.35;;;0.73;;
14619;SDS011;32125;48.518;9.050;2023-03-22T11:21:40;2.47;;;0.98;;
14619;SDS011;32125;48.518;9.050;2023-03-22T11:24:09;0.80;;;0.80;;
14619;SDS011;32125;48.518;9.050;2023-03-22T11:29:49;0.57;;;0.57;;
14619;SDS011;32125;48.518;9.050;2023-03-22T11:32:26;0.60;;;0.60;;
14619;SDS011;32125;48.518;9.050;2023-03-22T11:37:28;0.65;;;0.65;;
14619;SDS011;32125;48.518;9.050;2023-03-22T11:39:57;1.58;;;0.70;;
14619;SDS011;32125;48.518;9.050;2023-03-22T11:42:24;1.27;;;0.63;;
14619;SDS011;32125;48.518;9.050;2023-03-22T11:44:51;0.80;;;0.80;;
14619;SDS011;32125;48.518;9.050;2023-03-22T11:47:17;0.80;;;0.70;;
14619;SDS011;32125;48.518;9.050;2023-03-22T11:49:45;0.75;;;0.75;;
14619;SDS011;32125;48.518;9.050;2023-03-22T11:52:19;3.03;;;0.80;;
14619;SDS011;32125;48.518;9.050;2023-03-22T11:54:47;0.77;;;0.77;;
14619;SDS011;32125;48.518;9.050;2023-03-22T11:57:20;1.48;;;0.90;;
14619;SDS011;32125;48.518;9.050;2023-03-22T12:02:27;0.90;;;0.80;;
14619;SDS011;32125;48.518;9.050;2023-03-22T12:05:00;0.63;;;0.63;;
14619;SDS011;32125;48.518;9.050;2023-03-22T12:07:31;1.13;;;0.70;;
14619;SDS011;32125;48.518;9.050;2023-03-22T12:12:37;0.70;;;0.70;;
14619;SDS011;32125;48.518;9.050;2023-03-22T12:15:12;1.00;;;0.80;;
14619;SDS011;32125;48.518;9.050;2023-03-22T12:17:41;2.03;;;0.80;;
14619;SDS011;32125;48.518;9.050;2023-03-22T12:22:47;0.75;;;0.70;;
14619;SDS011;32125;48.518;9.050;2023-03-22T12:25:34;0.75;;;0.70;;
14619;SDS011;32125;48.518;9.050;2023-03-22T12:28:04;0.88;;;0.68;;
14619;SDS011;32125;48.518;9.050;2023-03-22T12:30:39;1.52;;;0.70;;
14619;SDS011;32125;48.518;9.050;2023-03-22T12:35:46;1.58;;;1.13;;
14619;SDS011;32125;48.518;9.050;2023-03-22T12:40:40;1.95;;;0.80;;
14619;SDS011;32125;48.518;9.050;2023-03-22T12:43:12;0.90;;;0.65;;
14619;SDS011;32125;48.518;9.050;2023-03-22T12:45:41;0.65;;;0.60;;
14619;SDS011;32125;48.518;9.050;2023-03-22T12:50:47;0.68;;;0.68;;
14619;SDS011;32125;48.518;9.050;2023-03-22T12:53:19;1.83;;;0.65;;
14619;SDS011;32125;48.518;9.050;2023-03-22T12:55:46;1.65;;;0.80;;
14619;SDS011;32125;48.518;9.050;2023-03-22T12:58:20;2.03;;;0.70;;
14619;SDS011;32125;48.518;9.050;2023-03-22T13:00:55;1.10;;;0.75;;
14619;SDS011;32125;48.518;9.050;2023-03-22T13:06:05;0.70;;;0.70;;
14619;SDS011;32125;48.518;9.050;2023-03-22T13:08:59;2.10;;;0.73;;
14619;SDS011;32125;48.518;9.050;2023-03-22T13:12:26;0.50;;;0.50;;
14619;SDS011;32125;48.518;9.050;2023-03-22T13:19:57;1.50;;;0.60;;
14619;SDS011;32125;48.518;9.050;2023-03-22T13:32:55;0.60;;;0.60;;
14619;SDS011;32125;48.518;9.050;2023-03-22T13:35:34;0.82;;;0.50;;
14619;SDS011;32125;48.518;9.050;2023-03-22T13:38:08;0.50;;;0.50;;
14619;SDS011;32125;48.518;9.050;2023-03-22T13:40:46;0.65;;;0.65;;
14619;SDS011;32125;48.518;9.050;2023-03-22T13:53:45;1.50;;;0.65;;
14619;SDS011;32125;48.518;9.050;2023-03-22T13:56:27;0.63;;;0.63;;
14619;SDS011;32125;48.518;9.050;2023-03-22T13:58:55;0.93;;;0.65;;
14619;SDS011;32125;48.518;9.050;2023-03-22T14:01:30;0.75;;;0.60;;
14619;SDS011;32125;48.518;9.050;2023-03-22T14:04:00;0.80;;;0.80;;
14619;SDS011;32125;48.518;9.050;2023-03-22T14:06:29;0.65;;;0.60;;
14619;SDS011;32125;48.518;9.050;2023-03-22T14:09:02;1.20;;;0.70;;
14619;SDS011;32125;48.518;9.050;2023-03-22T14:11:46;1.45;;;0.52;;
14619;SDS011;32125;48.518;9.050;2023-03-22T14:14:21;0.70;;;0.70;;
14619;SDS011;32125;48.518;9.050;2023-03-22T14:16:52;1.08;;;0.52;;
14619;SDS011;32125;48.518;9.050;2023-03-22T14:19:42;2.65;;;0.90;;
14619;SDS011;32125;48.518;9.050;2023-03-22T14:22:13;1.27;;;0.80;;
14619;SDS011;32125;48.518;9.050;2023-03-22T14:24:44;1.38;;;0.60;;
14619;SDS011;32125;48.518;9.050;2023-03-22T14:27:13;0.60;;;0.60;;
14619;SDS011;32125;48.518;9.050;2023-03-22T14:29:43;0.60;;;0.60;;
14619;SDS011;32125;48.518;9.050;2023-03-22T14:32:24;0.80;;;0.70;;
14619;SDS011;32125;48.518;9.050;2023-03-22T14:35:37;1.27;;;0.85;;
14619;SDS011;32125;48.518;9.050;2023-03-22T14:37:46;0.90;;;0.70;;
14619;SDS011;32125;48.518;9.050;2023-03-22T14:40:16;1.90;;;0.82;;
14619;SDS011;32125;48.518;9.050;2023-03-22T14:43:10;1.00;;;0.50;;
14619;SDS011;32125;48.518;9.050;2023-03-22T14:45:43;1.40;;;0.70;;
14619;SDS011;32125;48.518;9.050;2023-03-22T14:48:12;0.70;;;0.70;;
14619;SDS011;32125;48.518;9.050;2023-03-22T14:50:44;0.57;;;0.57;;
14619;SDS011;32125;48.518;9.050;2023-03-22T14:53:10;1.25;;;0.80;;
14619;SDS011;32125;48.518;9.050;2023-03-22T14:55:36;0.90;;;0.60;;
14619;SDS011;32125;48.518;9.050;2023-03-22T14:58:05;0.77;;;0.77;;
14619;SDS011;32125;48.518;9.050;2023-03-22T15:00:36;1.75;;;0.68;;
14619;SDS011;32125;48.518;9.050;2023-03-22T15:03:04;1.05;;;0.80;;
14619;SDS011;32125;48.518;9.050;2023-03-22T15:05:35;1.25;;;0.80;;
14619;SDS011;32125;48.518;9.050;2023-03-22T15:10:32;1.85;;;0.70;;
14619;SDS011;32125;48.518;9.050;2023-03-22T15:13:01;3.25;;;0.90;;
14619;SDS011;32125;48.518;9.050;2023-03-22T15:15:32;1.40;;;0.90;;
14619;SDS011;32125;48.518;9.050;2023-03-22T15:18:04;1.13;;;0.88;;
14619;SDS011;32125;48.518;9.050;2023-03-22T15:20:32;3.92;;;0.90;;
14619;SDS011;32125;48.518;9.050;2023-03-22T15:26:11;0.75;;;0.75;;
14619;SDS011;32125;48.518;9.050;2023-03-22T15:28:42;1.30;;;0.85;;
14619;SDS011;32125;48.518;9.050;2023-03-22T15:31:44;2.22;;;0.90;;
14619;SDS011;32125;48.518;9.050;2023-03-22T15:34:04;3.63;;;1.02;;
14619;SDS011;32125;48.518;9.050;2023-03-22T15:36:31;2.33;;;1.10;;
14619;SDS011;32125;48.518;9.050;2023-03-22T15:39:00;2.72;;;1.02;;
14619;SDS011;32125;48.518;9.050;2023-03-22T15:51:46;1.40;;;0.80;;
14619;SDS011;32125;48.518;9.050;2023-03-22T15:54:17;0.90;;;0.90;;
14619;SDS011;32125;48.518;9.050;2023-03-22T15:56:46;1.13;;;1.08;;
14619;SDS011;32125;48.518;9.050;2023-03-22T15:59:29;1.27;;;0.90;;
14619;SDS011;32125;48.518;9.050;2023-03-22T16:01:58;1.80;;;1.07;;
14619;SDS011;32125;48.518;9.050;2023-03-22T16:04:33;2.38;;;1.10;;
14619;SDS011;32125;48.518;9.050;2023-03-22T16:06:59;1.97;;;1.10;;
14619;SDS011;32125;48.518;9.050;2023-03-22T16:09:25;2.03;;;0.95;;
14619;SDS011;32125;48.518;9.050;2023-03-22T16:11:56;0.97;;;0.97;;
14619;SDS011;32125;48.518;9.050;2023-03-22T16:14:22;1.00;;;1.00;;
14619;SDS011;32125;48.518;9.050;2023-03-22T16:16:48;3.23;;;1.20;;
14619;SDS011;32125;48.518;9.050;2023-03-22T16:19:14;2.23;;;1.10;;
14619;SDS011;32125;48.518;9.050;2023-03-22T16:21:53;1.17;;;1.10;;
14619;SDS011;32125;48.518;9.050;2023-03-22T16:24:21;1.23;;;1.13;;
14619;SDS011;32125;48.518;9.050;2023-03-22T16:26:47;1.00;;;0.90;;
14619;SDS011;32125;48.518;9.050;2023-03-22T16:29:13;1.43;;;1.00;;
14619;SDS011;32125;48.518;9.050;2023-03-22T16:31:39;1.33;;;1.00;;
14619;SDS011;32125;48.518;9.050;2023-03-22T16:34:07;1.97;;;0.90;;
14619;SDS011;32125;48.518;9.050;2023-03-22T16:36:37;2.80;;;0.70;;
14619;SDS011;32125;48.518;9.050;2023-03-22T16:39:03;1.30;;;0.90;;
14619;SDS011;32125;48.518;9.050;2023-03-22T16:41:29;1.03;;;0.93;;
14619;SDS011;32125;48.518;9.050;2023-03-22T16:43:56;1.40;;;0.90;;
14619;SDS011;32125;48.518;9.050;2023-03-22T16:46:25;0.83;;;0.80;;
14619;SDS011;32125;48.518;9.050;2023-03-22T16:48:52;0.90;;;0.90;;
14619;SDS011;32125;48.518;9.050;2023-03-22T16:51:20;2.20;;;1.00;;
14619;SDS011;32125;48.518;9.050;2023-03-22T16:53:52;1.47;;;1.10;;
14619;SDS011;32125;48.518;9.050;2023-03-22T16:56:22;1.07;;;1.00;;
14619;SDS011;32125;48.518;9.050;2023-03-22T16:58:49;1.67;;;1.07;;
14619;SDS011;32125;48.518;9.050;2023-03-22T17:01:16;2.20;;;1.00;;
14619;SDS011;32125;48.518;9.050;2023-03-22T17:03:46;2.67;;;1.17;;
14619;SDS011;32125;48.518;9.050;2023-03-22T17:06:15;1.43;;;1.30;;
14619;SDS011;32125;48.518;9.050;2023-03-22T17:08:46;1.10;;;0.90;;
14619;SDS011;32125;48.518;9.050;2023-03-22T17:11:16;0.90;;;0.90;;
14619;SDS011;32125;48.518;9.050;2023-03-22T17:13:50;3.10;;;1.10;;